Wrentham, MA (02093)

10:55 AM EST on February 08, 2016 (GMT -0500)
APRSWXNET | | Change Station
CLOSE
Current Station
Personal Weather Station
Location: Wrentham, MA
Elevation: 282 ft
Nearby Weather Stations

Elev 282 ft 42.05 °N, 71.31 °W | Updated 19 minutes ago

Snow
Snow
19 °F
Feels Like 8 °F
N
9
Wind Variable Wind from NNE
Gusts 29.0 mph

Today
High -- | Low -- °F
--% Chance of Precip.
Yesterday
High -- | Low -- °F
Precip. -- in
Pressure 29.78 in
Visibility 0.8 miles
Clouds Overcast 1200 ft
Windchill 8 °F
Dew Point 16 °F
Humidity 88%
Rainfall in
Snow Depth Not available.
6:51 AM 5:08 PM
New Moon, 0% visible
METAR KSFZ 081535Z AUTO 01017G20KT 3/4SM OVC012 M07/M10 A2978 RMK AO1
Pressure 29.78 in
Visibility 0.8 miles
Clouds Overcast 1200 ft
Windchill 8 °F
Dew Point 16 °F
Humidity 88%
Rainfall in
Snow Depth Not available.
6:51 AM 5:08 PM
New Moon, 0% visible
METAR KSFZ 081535Z AUTO 01017G20KT 3/4SM OVC012 M07/M10 A2978 RMK AO1

10-Day Weather Forecast

Almanac

Astronomy

Feb. 08, 2016 Rise Set
Actual Time
Civil Twilight
Nautical Twilight
Astronomical Twilight
Moon
Length of Visible Light
Length of Day
Tomorrow will be .
, % of the Moon is Illuminated

Today's Extremes

State Highs State Lows

Community

WunderPhotos

Upload Photos

1,891,440 photos uploaded!

WunderBlog® & News

Nearby

Air Quality

  Air Quality AQ Index Pollutant
Not available.

Snow Depth

Station Depth Elevation

Earthquake Activity

City Distance Mag. Time & Date
Minimum magnitude displayed is 2.5.

Coastal Water Temperatures

Place Temperature

Stations

Nearby Weather Stations

Station Location Temp. Windchill Dew Point Humidity Wind Precip. Elev Updated Type
                   

Watches & Warnings

Winter Storm Warning
Issued: 10:53 AM EST Feb. 8, 2016 – National Weather Service

... Winter Storm Warning remains in effect until 7 am EST
Tuesday...

* locations... Rhode Island into south central and eastern
Massachusetts.

* Hazard types... heavy snow.

* Accumulations... snow accumulation of 6 to 10 inches.

* Timing... snow of varying intensity this afternoon. Snow
intensity should diminish by early evening... but very localized
bands of moderate to heavy snow may persist along the northeast
Massachusetts coast into the overnight hours.

* Impacts... travel will be slow at best on well treated
surfaces... and quite difficult on any unplowed or untreated
surfaces. Blowing and drifting snow is also expected
particularly along the Boston to Providence corridor.

* Winds... north 10 to 20 mph with gusts up to 45 mph.

* Visibilities... one quarter mile or less at times.

Precautionary/preparedness actions...

A Winter Storm Warning is issued when an average of 6 or more
inches of snow is expected in a 12 hour period... or for 8 or more
inches in a 24 hour period. Travel will be slow at best on well
treated surfaces... and quite difficult on any unplowed or
untreated surfaces.